sensor_id;sensor_type;location;lat;lon;timestamp;P1;durP1;ratioP1;P2;durP2;ratioP2
21721;SDS011;11023;48.274;7.794;2022-08-21T00:01:26;3.67;;;1.60;;
21721;SDS011;11023;48.274;7.794;2022-08-21T00:03:54;5.80;;;2.00;;
21721;SDS011;11023;48.274;7.794;2022-08-21T00:06:20;2.88;;;1.42;;
21721;SDS011;11023;48.274;7.794;2022-08-21T00:08:47;6.20;;;1.48;;
21721;SDS011;11023;48.274;7.794;2022-08-21T00:11:13;4.25;;;1.65;;
21721;SDS011;11023;48.274;7.794;2022-08-21T00:13:39;7.10;;;1.60;;
21721;SDS011;11023;48.274;7.794;2022-08-21T00:16:05;7.85;;;2.22;;
21721;SDS011;11023;48.274;7.794;2022-08-21T00:18:31;7.07;;;1.80;;
21721;SDS011;11023;48.274;7.794;2022-08-21T00:20:57;3.88;;;1.50;;
21721;SDS011;11023;48.274;7.794;2022-08-21T00:23:23;5.78;;;1.73;;
21721;SDS011;11023;48.274;7.794;2022-08-21T00:25:49;5.95;;;1.75;;
21721;SDS011;11023;48.274;7.794;2022-08-21T00:28:15;3.20;;;1.50;;
21721;SDS011;11023;48.274;7.794;2022-08-21T00:30:41;8.23;;;1.55;;
21721;SDS011;11023;48.274;7.794;2022-08-21T00:33:08;5.75;;;1.80;;
21721;SDS011;11023;48.274;7.794;2022-08-21T00:35:35;5.07;;;1.52;;
21721;SDS011;11023;48.274;7.794;2022-08-21T00:38:03;8.60;;;1.60;;
21721;SDS011;11023;48.274;7.794;2022-08-21T00:40:32;5.03;;;1.63;;
21721;SDS011;11023;48.274;7.794;2022-08-21T00:43:08;8.18;;;2.03;;
21721;SDS011;11023;48.274;7.794;2022-08-21T00:45:35;3.53;;;1.73;;
21721;SDS011;11023;48.274;7.794;2022-08-21T00:48:01;4.88;;;1.80;;
21721;SDS011;11023;48.274;7.794;2022-08-21T00:50:28;8.35;;;1.83;;
21721;SDS011;11023;48.274;7.794;2022-08-21T00:52:57;5.25;;;1.60;;
21721;SDS011;11023;48.274;7.794;2022-08-21T00:55:25;4.90;;;1.70;;
21721;SDS011;11023;48.274;7.794;2022-08-21T00:57:52;7.50;;;1.75;;
21721;SDS011;11023;48.274;7.794;2022-08-21T01:00:28;3.97;;;1.63;;
21721;SDS011;11023;48.274;7.794;2022-08-21T01:02:57;5.03;;;1.63;;
21721;SDS011;11023;48.274;7.794;2022-08-21T01:05:24;4.25;;;1.67;;
21721;SDS011;11023;48.274;7.794;2022-08-21T01:07:50;3.63;;;1.55;;
21721;SDS011;11023;48.274;7.794;2022-08-21T01:10:16;3.28;;;1.50;;
21721;SDS011;11023;48.274;7.794;2022-08-21T01:12:43;4.20;;;1.60;;
21721;SDS011;11023;48.274;7.794;2022-08-21T01:15:09;5.32;;;1.35;;
21721;SDS011;11023;48.274;7.794;2022-08-21T01:17:36;3.08;;;1.30;;
21721;SDS011;11023;48.274;7.794;2022-08-21T01:20:04;2.58;;;1.45;;
21721;SDS011;11023;48.274;7.794;2022-08-21T01:22:33;5.30;;;1.45;;
21721;SDS011;11023;48.274;7.794;2022-08-21T01:24:58;4.93;;;1.50;;
21721;SDS011;11023;48.274;7.794;2022-08-21T01:27:24;4.28;;;1.60;;
21721;SDS011;11023;48.274;7.794;2022-08-21T01:29:57;8.55;;;1.75;;
21721;SDS011;11023;48.274;7.794;2022-08-21T01:32:26;4.07;;;1.75;;
21721;SDS011;11023;48.274;7.794;2022-08-21T01:34:52;5.88;;;1.67;;
21721;SDS011;11023;48.274;7.794;2022-08-21T01:37:18;8.95;;;1.65;;
21721;SDS011;11023;48.274;7.794;2022-08-21T01:39:46;4.85;;;1.52;;
21721;SDS011;11023;48.274;7.794;2022-08-21T01:42:12;4.45;;;1.60;;
21721;SDS011;11023;48.274;7.794;2022-08-21T01:44:38;3.15;;;1.48;;
21721;SDS011;11023;48.274;7.794;2022-08-21T01:47:05;4.15;;;1.70;;
21721;SDS011;11023;48.274;7.794;2022-08-21T01:49:33;8.27;;;2.20;;
21721;SDS011;11023;48.274;7.794;2022-08-21T01:51:59;4.45;;;1.70;;
21721;SDS011;11023;48.274;7.794;2022-08-21T01:54:25;4.28;;;1.73;;
21721;SDS011;11023;48.274;7.794;2022-08-21T01:56:52;3.50;;;1.55;;
21721;SDS011;11023;48.274;7.794;2022-08-21T01:59:19;6.00;;;1.80;;
21721;SDS011;11023;48.274;7.794;2022-08-21T02:01:47;5.45;;;2.05;;
21721;SDS011;11023;48.274;7.794;2022-08-21T02:04:13;5.72;;;1.70;;
21721;SDS011;11023;48.274;7.794;2022-08-21T02:06:39;4.53;;;1.80;;
21721;SDS011;11023;48.274;7.794;2022-08-21T02:09:06;3.65;;;1.83;;
21721;SDS011;11023;48.274;7.794;2022-08-21T02:11:33;4.50;;;1.85;;
21721;SDS011;11023;48.274;7.794;2022-08-21T02:14:00;4.72;;;1.67;;
21721;SDS011;11023;48.274;7.794;2022-08-21T02:16:25;4.78;;;1.80;;
21721;SDS011;11023;48.274;7.794;2022-08-21T02:18:51;5.18;;;1.60;;
21721;SDS011;11023;48.274;7.794;2022-08-21T02:21:17;2.63;;;1.60;;
21721;SDS011;11023;48.274;7.794;2022-08-21T02:23:42;3.30;;;1.67;;
21721;SDS011;11023;48.274;7.794;2022-08-21T02:26:09;4.93;;;1.63;;
21721;SDS011;11023;48.274;7.794;2022-08-21T02:28:35;4.30;;;1.85;;
21721;SDS011;11023;48.274;7.794;2022-08-21T02:31:03;4.82;;;1.83;;
21721;SDS011;11023;48.274;7.794;2022-08-21T02:33:30;3.30;;;1.98;;
21721;SDS011;11023;48.274;7.794;2022-08-21T02:35:56;4.25;;;2.20;;
21721;SDS011;11023;48.274;7.794;2022-08-21T02:38:23;5.70;;;2.05;;
21721;SDS011;11023;48.274;7.794;2022-08-21T02:40:51;4.05;;;1.90;;
21721;SDS011;11023;48.274;7.794;2022-08-21T02:43:18;3.63;;;2.03;;
21721;SDS011;11023;48.274;7.794;2022-08-21T02:45:46;9.27;;;1.90;;
21721;SDS011;11023;48.274;7.794;2022-08-21T02:48:15;6.07;;;2.10;;
21721;SDS011;11023;48.274;7.794;2022-08-21T02:50:45;4.53;;;1.92;;
21721;SDS011;11023;48.274;7.794;2022-08-21T02:53:19;3.90;;;1.90;;
21721;SDS011;11023;48.274;7.794;2022-08-21T02:55:46;7.00;;;1.92;;
21721;SDS011;11023;48.274;7.794;2022-08-21T02:58:13;4.60;;;1.95;;
21721;SDS011;11023;48.274;7.794;2022-08-21T03:00:41;4.43;;;1.90;;
21721;SDS011;11023;48.274;7.794;2022-08-21T03:03:08;3.78;;;1.75;;
21721;SDS011;11023;48.274;7.794;2022-08-21T03:05:35;6.50;;;2.20;;
21721;SDS011;11023;48.274;7.794;2022-08-21T03:08:02;3.63;;;1.80;;
21721;SDS011;11023;48.274;7.794;2022-08-21T03:10:34;4.82;;;2.22;;
21721;SDS011;11023;48.274;7.794;2022-08-21T03:13:00;4.57;;;2.00;;
21721;SDS011;11023;48.274;7.794;2022-08-21T03:15:28;4.78;;;1.98;;
21721;SDS011;11023;48.274;7.794;2022-08-21T03:17:55;6.72;;;1.63;;
21721;SDS011;11023;48.274;7.794;2022-08-21T03:20:23;5.40;;;2.30;;
21721;SDS011;11023;48.274;7.794;2022-08-21T03:22:50;8.65;;;2.88;;
21721;SDS011;11023;48.274;7.794;2022-08-21T03:25:17;6.30;;;2.25;;
21721;SDS011;11023;48.274;7.794;2022-08-21T03:27:43;3.60;;;2.17;;
21721;SDS011;11023;48.274;7.794;2022-08-21T03:30:09;6.45;;;2.33;;
21721;SDS011;11023;48.274;7.794;2022-08-21T03:32:36;5.13;;;2.03;;
21721;SDS011;11023;48.274;7.794;2022-08-21T03:35:02;6.35;;;1.90;;
21721;SDS011;11023;48.274;7.794;2022-08-21T03:37:29;6.63;;;1.90;;
21721;SDS011;11023;48.274;7.794;2022-08-21T03:39:55;10.93;;;2.72;;
21721;SDS011;11023;48.274;7.794;2022-08-21T03:42:21;7.70;;;2.45;;
21721;SDS011;11023;48.274;7.794;2022-08-21T03:44:46;8.93;;;2.00;;
21721;SDS011;11023;48.274;7.794;2022-08-21T03:47:12;8.65;;;2.30;;
21721;SDS011;11023;48.274;7.794;2022-08-21T03:49:37;5.78;;;2.20;;
21721;SDS011;11023;48.274;7.794;2022-08-21T03:52:03;5.93;;;2.08;;
21721;SDS011;11023;48.274;7.794;2022-08-21T03:54:29;8.82;;;2.47;;
21721;SDS011;11023;48.274;7.794;2022-08-21T03:56:55;8.90;;;2.20;;
21721;SDS011;11023;48.274;7.794;2022-08-21T03:59:21;8.68;;;2.50;;
21721;SDS011;11023;48.274;7.794;2022-08-21T04:01:59;5.75;;;2.50;;
21721;SDS011;11023;48.274;7.794;2022-08-21T04:04:27;8.48;;;2.80;;
21721;SDS011;11023;48.274;7.794;2022-08-21T04:06:54;7.38;;;2.42;;
21721;SDS011;11023;48.274;7.794;2022-08-21T04:09:20;5.65;;;2.63;;
21721;SDS011;11023;48.274;7.794;2022-08-21T04:11:46;5.57;;;2.67;;
21721;SDS011;11023;48.274;7.794;2022-08-21T04:14:12;9.02;;;3.15;;
21721;SDS011;11023;48.274;7.794;2022-08-21T04:16:39;5.20;;;2.20;;
21721;SDS011;11023;48.274;7.794;2022-08-21T04:19:06;5.70;;;2.55;;
21721;SDS011;11023;48.274;7.794;2022-08-21T04:21:32;8.20;;;2.80;;
21721;SDS011;11023;48.274;7.794;2022-08-21T04:23:58;10.50;;;2.72;;
21721;SDS011;11023;48.274;7.794;2022-08-21T04:26:24;8.18;;;2.63;;
21721;SDS011;11023;48.274;7.794;2022-08-21T04:28:50;12.00;;;2.47;;
21721;SDS011;11023;48.274;7.794;2022-08-21T04:31:17;6.65;;;2.67;;
21721;SDS011;11023;48.274;7.794;2022-08-21T04:33:43;7.60;;;2.53;;
21721;SDS011;11023;48.274;7.794;2022-08-21T04:36:09;7.32;;;2.85;;
21721;SDS011;11023;48.274;7.794;2022-08-21T04:38:35;5.05;;;2.40;;
21721;SDS011;11023;48.274;7.794;2022-08-21T04:41:02;7.47;;;2.78;;
21721;SDS011;11023;48.274;7.794;2022-08-21T04:43:29;6.28;;;2.80;;
21721;SDS011;11023;48.274;7.794;2022-08-21T04:45:55;6.30;;;2.72;;
21721;SDS011;11023;48.274;7.794;2022-08-21T04:48:21;7.28;;;2.97;;
21721;SDS011;11023;48.274;7.794;2022-08-21T04:53:34;6.22;;;2.83;;
21721;SDS011;11023;48.274;7.794;2022-08-21T04:56:18;11.38;;;3.00;;
21721;SDS011;11023;48.274;7.794;2022-08-21T04:58:46;10.25;;;2.97;;
21721;SDS011;11023;48.274;7.794;2022-08-21T05:01:15;9.13;;;2.83;;
21721;SDS011;11023;48.274;7.794;2022-08-21T05:03:45;9.45;;;3.08;;
21721;SDS011;11023;48.274;7.794;2022-08-21T05:06:13;7.70;;;3.20;;
21721;SDS011;11023;48.274;7.794;2022-08-21T05:08:41;7.82;;;3.10;;
21721;SDS011;11023;48.274;7.794;2022-08-21T05:11:08;11.52;;;2.78;;
21721;SDS011;11023;48.274;7.794;2022-08-21T05:13:35;12.57;;;3.05;;
21721;SDS011;11023;48.274;7.794;2022-08-21T05:16:00;7.45;;;2.78;;
21721;SDS011;11023;48.274;7.794;2022-08-21T05:18:26;9.20;;;3.47;;
21721;SDS011;11023;48.274;7.794;2022-08-21T05:20:52;7.40;;;3.25;;
21721;SDS011;11023;48.274;7.794;2022-08-21T05:23:17;6.93;;;2.92;;
21721;SDS011;11023;48.274;7.794;2022-08-21T05:25:43;7.80;;;3.40;;
21721;SDS011;11023;48.274;7.794;2022-08-21T05:28:09;8.10;;;3.10;;
21721;SDS011;11023;48.274;7.794;2022-08-21T05:30:36;7.68;;;3.33;;
21721;SDS011;11023;48.274;7.794;2022-08-21T05:33:03;6.78;;;3.33;;
21721;SDS011;11023;48.274;7.794;2022-08-21T05:35:30;8.82;;;3.00;;
21721;SDS011;11023;48.274;7.794;2022-08-21T05:37:57;8.10;;;2.65;;
21721;SDS011;11023;48.274;7.794;2022-08-21T05:40:24;10.90;;;3.15;;
21721;SDS011;11023;48.274;7.794;2022-08-21T05:42:51;10.20;;;3.38;;
21721;SDS011;11023;48.274;7.794;2022-08-21T05:45:17;6.43;;;3.13;;
21721;SDS011;11023;48.274;7.794;2022-08-21T05:47:43;8.60;;;3.03;;
21721;SDS011;11023;48.274;7.794;2022-08-21T05:50:09;7.57;;;2.90;;
21721;SDS011;11023;48.274;7.794;2022-08-21T05:52:34;8.70;;;3.85;;
21721;SDS011;11023;48.274;7.794;2022-08-21T05:55:01;7.53;;;3.13;;
21721;SDS011;11023;48.274;7.794;2022-08-21T05:57:27;7.30;;;3.13;;
21721;SDS011;11023;48.274;7.794;2022-08-21T05:59:52;5.57;;;3.13;;
21721;SDS011;11023;48.274;7.794;2022-08-21T06:02:19;7.22;;;3.00;;
21721;SDS011;11023;48.274;7.794;2022-08-21T06:04:45;7.28;;;3.60;;
21721;SDS011;11023;48.274;7.794;2022-08-21T06:07:11;6.78;;;3.00;;
21721;SDS011;11023;48.274;7.794;2022-08-21T06:09:38;11.68;;;3.15;;
21721;SDS011;11023;48.274;7.794;2022-08-21T06:12:08;9.40;;;3.72;;
21721;SDS011;11023;48.274;7.794;2022-08-21T06:14:36;5.55;;;2.75;;
21721;SDS011;11023;48.274;7.794;2022-08-21T06:17:04;10.40;;;2.88;;
21721;SDS011;11023;48.274;7.794;2022-08-21T06:19:31;9.13;;;2.45;;
21721;SDS011;11023;48.274;7.794;2022-08-21T06:21:58;6.70;;;2.35;;
21721;SDS011;11023;48.274;7.794;2022-08-21T06:24:24;5.20;;;2.22;;
21721;SDS011;11023;48.274;7.794;2022-08-21T06:26:50;5.05;;;2.30;;
21721;SDS011;11023;48.274;7.794;2022-08-21T06:29:16;4.25;;;2.28;;
21721;SDS011;11023;48.274;7.794;2022-08-21T06:31:45;7.22;;;2.67;;
21721;SDS011;11023;48.274;7.794;2022-08-21T06:34:12;5.07;;;2.28;;
21721;SDS011;11023;48.274;7.794;2022-08-21T06:36:38;6.75;;;2.50;;
21721;SDS011;11023;48.274;7.794;2022-08-21T06:39:04;5.05;;;2.50;;
21721;SDS011;11023;48.274;7.794;2022-08-21T06:41:30;4.63;;;2.40;;
21721;SDS011;11023;48.274;7.794;2022-08-21T06:43:57;4.57;;;2.92;;
21721;SDS011;11023;48.274;7.794;2022-08-21T06:46:24;11.98;;;3.00;;
21721;SDS011;11023;48.274;7.794;2022-08-21T06:48:52;4.75;;;2.47;;
21721;SDS011;11023;48.274;7.794;2022-08-21T06:51:18;4.88;;;2.40;;
21721;SDS011;11023;48.274;7.794;2022-08-21T06:53:44;9.05;;;2.70;;
21721;SDS011;11023;48.274;7.794;2022-08-21T06:56:10;6.28;;;3.03;;
21721;SDS011;11023;48.274;7.794;2022-08-21T06:58:36;6.30;;;2.75;;
21721;SDS011;11023;48.274;7.794;2022-08-21T07:01:02;6.32;;;3.10;;
21721;SDS011;11023;48.274;7.794;2022-08-21T07:03:29;5.47;;;2.75;;
21721;SDS011;11023;48.274;7.794;2022-08-21T07:06:00;5.70;;;3.08;;
21721;SDS011;11023;48.274;7.794;2022-08-21T07:08:27;5.90;;;2.47;;
21721;SDS011;11023;48.274;7.794;2022-08-21T07:10:55;8.57;;;2.90;;
21721;SDS011;11023;48.274;7.794;2022-08-21T07:13:22;9.23;;;3.13;;
21721;SDS011;11023;48.274;7.794;2022-08-21T07:15:49;6.82;;;2.80;;
21721;SDS011;11023;48.274;7.794;2022-08-21T07:18:15;7.70;;;2.80;;
21721;SDS011;11023;48.274;7.794;2022-08-21T07:20:41;5.80;;;2.58;;
21721;SDS011;11023;48.274;7.794;2022-08-21T07:23:11;5.63;;;2.65;;
21721;SDS011;11023;48.274;7.794;2022-08-21T07:25:46;10.07;;;3.20;;
21721;SDS011;11023;48.274;7.794;2022-08-21T07:28:12;7.50;;;3.20;;
21721;SDS011;11023;48.274;7.794;2022-08-21T07:30:38;6.05;;;2.88;;
21721;SDS011;11023;48.274;7.794;2022-08-21T07:33:03;5.85;;;2.50;;
21721;SDS011;11023;48.274;7.794;2022-08-21T07:35:30;5.60;;;2.38;;
21721;SDS011;11023;48.274;7.794;2022-08-21T07:37:58;6.32;;;2.88;;
21721;SDS011;11023;48.274;7.794;2022-08-21T07:40:24;7.45;;;2.80;;
21721;SDS011;11023;48.274;7.794;2022-08-21T07:42:51;5.97;;;2.30;;
21721;SDS011;11023;48.274;7.794;2022-08-21T07:45:21;7.25;;;2.72;;
21721;SDS011;11023;48.274;7.794;2022-08-21T07:47:49;6.82;;;2.55;;
21721;SDS011;11023;48.274;7.794;2022-08-21T07:50:15;5.30;;;2.30;;
21721;SDS011;11023;48.274;7.794;2022-08-21T07:52:42;6.45;;;2.35;;
21721;SDS011;11023;48.274;7.794;2022-08-21T07:55:12;7.22;;;2.55;;
21721;SDS011;11023;48.274;7.794;2022-08-21T07:57:40;7.47;;;2.50;;
21721;SDS011;11023;48.274;7.794;2022-08-21T08:00:07;6.57;;;2.85;;
21721;SDS011;11023;48.274;7.794;2022-08-21T08:02:36;6.03;;;2.50;;
21721;SDS011;11023;48.274;7.794;2022-08-21T08:05:02;5.03;;;2.25;;
21721;SDS011;11023;48.274;7.794;2022-08-21T08:07:32;4.15;;;2.25;;
21721;SDS011;11023;48.274;7.794;2022-08-21T08:09:59;6.88;;;2.40;;
21721;SDS011;11023;48.274;7.794;2022-08-21T08:12:25;6.88;;;2.50;;
21721;SDS011;11023;48.274;7.794;2022-08-21T08:14:59;5.82;;;2.50;;
21721;SDS011;11023;48.274;7.794;2022-08-21T08:17:26;8.18;;;3.03;;
21721;SDS011;11023;48.274;7.794;2022-08-21T08:19:54;6.15;;;2.92;;
21721;SDS011;11023;48.274;7.794;2022-08-21T08:22:21;5.75;;;2.30;;
21721;SDS011;11023;48.274;7.794;2022-08-21T08:24:49;7.28;;;2.50;;
21721;SDS011;11023;48.274;7.794;2022-08-21T08:27:16;8.05;;;2.80;;
21721;SDS011;11023;48.274;7.794;2022-08-21T08:29:43;8.77;;;2.38;;
21721;SDS011;11023;48.274;7.794;2022-08-21T08:32:09;7.45;;;2.85;;
21721;SDS011;11023;48.274;7.794;2022-08-21T08:34:36;5.88;;;2.30;;
21721;SDS011;11023;48.274;7.794;2022-08-21T08:37:04;6.63;;;2.58;;
21721;SDS011;11023;48.274;7.794;2022-08-21T08:39:30;6.38;;;2.40;;
21721;SDS011;11023;48.274;7.794;2022-08-21T08:42:13;9.25;;;2.70;;
21721;SDS011;11023;48.274;7.794;2022-08-21T08:44:41;9.15;;;2.70;;
21721;SDS011;11023;48.274;7.794;2022-08-21T08:47:10;7.68;;;2.40;;
21721;SDS011;11023;48.274;7.794;2022-08-21T08:52:33;7.97;;;2.63;;
21721;SDS011;11023;48.274;7.794;2022-08-21T08:55:06;8.13;;;2.72;;
21721;SDS011;11023;48.274;7.794;2022-08-21T08:57:35;8.23;;;2.40;;
21721;SDS011;11023;48.274;7.794;2022-08-21T09:00:08;10.98;;;2.80;;
21721;SDS011;11023;48.274;7.794;2022-08-21T09:02:40;9.75;;;2.40;;
21721;SDS011;11023;48.274;7.794;2022-08-21T09:05:09;8.40;;;2.53;;
21721;SDS011;11023;48.274;7.794;2022-08-21T09:07:49;6.32;;;2.45;;
21721;SDS011;11023;48.274;7.794;2022-08-21T09:10:38;8.52;;;2.42;;
21721;SDS011;11023;48.274;7.794;2022-08-21T09:13:27;7.60;;;2.80;;
21721;SDS011;11023;48.274;7.794;2022-08-21T09:21:55;6.63;;;2.40;;
21721;SDS011;11023;48.274;7.794;2022-08-21T09:24:36;12.10;;;2.80;;
21721;SDS011;11023;48.274;7.794;2022-08-21T09:27:13;6.70;;;2.38;;
21721;SDS011;11023;48.274;7.794;2022-08-21T09:29:41;9.60;;;2.75;;
21721;SDS011;11023;48.274;7.794;2022-08-21T09:32:24;8.45;;;3.03;;
21721;SDS011;11023;48.274;7.794;2022-08-21T09:37:24;6.63;;;2.67;;
21721;SDS011;11023;48.274;7.794;2022-08-21T09:39:51;6.00;;;2.25;;
21721;SDS011;11023;48.274;7.794;2022-08-21T09:42:24;11.82;;;3.00;;
21721;SDS011;11023;48.274;7.794;2022-08-21T09:45:08;7.55;;;2.58;;
21721;SDS011;11023;48.274;7.794;2022-08-21T09:47:40;9.73;;;2.85;;
21721;SDS011;11023;48.274;7.794;2022-08-21T09:50:17;8.88;;;2.92;;
21721;SDS011;11023;48.274;7.794;2022-08-21T09:52:48;7.68;;;2.67;;
21721;SDS011;11023;48.274;7.794;2022-08-21T09:55:26;9.02;;;2.63;;
21721;SDS011;11023;48.274;7.794;2022-08-21T09:58:20;8.80;;;3.13;;
21721;SDS011;11023;48.274;7.794;2022-08-21T10:00:58;6.38;;;2.53;;
21721;SDS011;11023;48.274;7.794;2022-08-21T10:03:25;5.03;;;2.40;;
21721;SDS011;11023;48.274;7.794;2022-08-21T10:08:26;7.00;;;2.67;;
21721;SDS011;11023;48.274;7.794;2022-08-21T10:11:04;6.30;;;2.75;;
21721;SDS011;11023;48.274;7.794;2022-08-21T10:21:59;7.50;;;2.55;;
21721;SDS011;11023;48.274;7.794;2022-08-21T10:24:49;7.47;;;2.53;;
21721;SDS011;11023;48.274;7.794;2022-08-21T10:30:21;9.82;;;3.47;;
21721;SDS011;11023;48.274;7.794;2022-08-21T10:33:06;7.57;;;2.83;;
21721;SDS011;11023;48.274;7.794;2022-08-21T10:47:37;7.13;;;2.70;;
21721;SDS011;11023;48.274;7.794;2022-08-21T10:56:30;5.80;;;2.38;;
21721;SDS011;11023;48.274;7.794;2022-08-21T10:59:23;8.10;;;2.30;;
21721;SDS011;11023;48.274;7.794;2022-08-21T11:02:09;5.75;;;2.42;;
21721;SDS011;11023;48.274;7.794;2022-08-21T11:07:21;5.93;;;2.25;;
21721;SDS011;11023;48.274;7.794;2022-08-21T11:09:50;3.60;;;1.85;;
21721;SDS011;11023;48.274;7.794;2022-08-21T11:12:22;5.95;;;2.13;;
21721;SDS011;11023;48.274;7.794;2022-08-21T11:17:34;7.90;;;2.10;;
21721;SDS011;11023;48.274;7.794;2022-08-21T11:23:01;5.93;;;1.73;;
21721;SDS011;11023;48.274;7.794;2022-08-21T11:25:36;8.18;;;2.20;;
21721;SDS011;11023;48.274;7.794;2022-08-21T11:28:08;5.47;;;1.70;;
21721;SDS011;11023;48.274;7.794;2022-08-21T11:30:46;5.53;;;1.88;;
21721;SDS011;11023;48.274;7.794;2022-08-21T11:36:15;3.60;;;1.70;;
21721;SDS011;11023;48.274;7.794;2022-08-21T11:39:11;7.72;;;1.80;;
21721;SDS011;11023;48.274;7.794;2022-08-21T11:44:47;3.15;;;1.45;;
21721;SDS011;11023;48.274;7.794;2022-08-21T11:52:44;4.10;;;1.63;;
21721;SDS011;11023;48.274;7.794;2022-08-21T11:55:55;4.65;;;1.80;;
21721;SDS011;11023;48.274;7.794;2022-08-21T11:58:32;2.67;;;1.60;;
21721;SDS011;11023;48.274;7.794;2022-08-21T12:01:09;3.25;;;1.30;;
21721;SDS011;11023;48.274;7.794;2022-08-21T12:03:42;4.00;;;1.60;;
21721;SDS011;11023;48.274;7.794;2022-08-21T12:06:26;4.22;;;1.45;;
21721;SDS011;11023;48.274;7.794;2022-08-21T12:09:04;3.67;;;1.67;;
21721;SDS011;11023;48.274;7.794;2022-08-21T12:11:43;2.65;;;1.38;;
21721;SDS011;11023;48.274;7.794;2022-08-21T12:14:16;3.90;;;1.30;;
21721;SDS011;11023;48.274;7.794;2022-08-21T12:16:47;5.50;;;1.40;;
21721;SDS011;11023;48.274;7.794;2022-08-21T12:24:37;3.00;;;1.42;;
21721;SDS011;11023;48.274;7.794;2022-08-21T12:30:04;3.78;;;1.48;;
21721;SDS011;11023;48.274;7.794;2022-08-21T12:32:44;3.10;;;1.40;;
21721;SDS011;11023;48.274;7.794;2022-08-21T12:35:20;5.18;;;1.10;;
21721;SDS011;11023;48.274;7.794;2022-08-21T12:37:50;1.33;;;0.98;;
21721;SDS011;11023;48.274;7.794;2022-08-21T12:40:46;4.72;;;1.08;;
21721;SDS011;11023;48.274;7.794;2022-08-21T12:43:29;4.18;;;1.25;;
21721;SDS011;11023;48.274;7.794;2022-08-21T12:45:59;2.08;;;1.00;;
21721;SDS011;11023;48.274;7.794;2022-08-21T12:48:48;5.38;;;1.00;;
21721;SDS011;11023;48.274;7.794;2022-08-21T12:51:31;2.55;;;1.00;;
21721;SDS011;11023;48.274;7.794;2022-08-21T12:54:07;2.45;;;0.90;;
21721;SDS011;11023;48.274;7.794;2022-08-21T12:56:33;1.70;;;1.00;;
21721;SDS011;11023;48.274;7.794;2022-08-21T12:59:05;1.23;;;0.88;;
21721;SDS011;11023;48.274;7.794;2022-08-21T13:01:36;2.55;;;0.75;;
21721;SDS011;11023;48.274;7.794;2022-08-21T13:04:13;3.58;;;0.98;;
21721;SDS011;11023;48.274;7.794;2022-08-21T13:06:47;3.50;;;1.02;;
21721;SDS011;11023;48.274;7.794;2022-08-21T13:09:18;1.98;;;0.95;;
21721;SDS011;11023;48.274;7.794;2022-08-21T13:11:48;2.05;;;1.00;;
21721;SDS011;11023;48.274;7.794;2022-08-21T13:14:38;2.70;;;0.82;;
21721;SDS011;11023;48.274;7.794;2022-08-21T13:17:03;2.53;;;1.00;;
21721;SDS011;11023;48.274;7.794;2022-08-21T13:19:30;1.50;;;0.90;;
21721;SDS011;11023;48.274;7.794;2022-08-21T13:21:57;1.23;;;0.95;;
21721;SDS011;11023;48.274;7.794;2022-08-21T13:26:51;2.67;;;0.90;;
21721;SDS011;11023;48.274;7.794;2022-08-21T13:29:18;1.52;;;0.85;;
21721;SDS011;11023;48.274;7.794;2022-08-21T13:31:51;1.65;;;1.10;;
21721;SDS011;11023;48.274;7.794;2022-08-21T13:34:22;2.00;;;1.00;;
21721;SDS011;11023;48.274;7.794;2022-08-21T13:36:54;3.47;;;1.02;;
21721;SDS011;11023;48.274;7.794;2022-08-21T13:39:23;1.05;;;0.95;;
21721;SDS011;11023;48.274;7.794;2022-08-21T13:41:50;1.73;;;1.00;;
21721;SDS011;11023;48.274;7.794;2022-08-21T13:46:51;1.83;;;0.90;;
21721;SDS011;11023;48.274;7.794;2022-08-21T13:49:19;2.17;;;0.90;;
21721;SDS011;11023;48.274;7.794;2022-08-21T13:51:48;2.78;;;0.88;;
21721;SDS011;11023;48.274;7.794;2022-08-21T13:54:36;1.60;;;0.80;;
21721;SDS011;11023;48.274;7.794;2022-08-21T13:57:03;3.10;;;1.05;;
21721;SDS011;11023;48.274;7.794;2022-08-21T13:59:40;1.00;;;0.80;;
21721;SDS011;11023;48.274;7.794;2022-08-21T14:02:14;2.40;;;0.98;;
21721;SDS011;11023;48.274;7.794;2022-08-21T14:07:24;2.50;;;1.00;;
21721;SDS011;11023;48.274;7.794;2022-08-21T14:09:51;1.73;;;0.95;;
21721;SDS011;11023;48.274;7.794;2022-08-21T14:12:19;2.25;;;1.10;;
21721;SDS011;11023;48.274;7.794;2022-08-21T14:14:53;4.20;;;1.00;;
21721;SDS011;11023;48.274;7.794;2022-08-21T14:17:53;3.20;;;1.08;;
21721;SDS011;11023;48.274;7.794;2022-08-21T14:20:24;3.33;;;1.00;;
21721;SDS011;11023;48.274;7.794;2022-08-21T14:22:58;2.40;;;0.93;;
21721;SDS011;11023;48.274;7.794;2022-08-21T14:25:29;3.08;;;1.10;;
21721;SDS011;11023;48.274;7.794;2022-08-21T14:30:47;3.72;;;1.30;;
21721;SDS011;11023;48.274;7.794;2022-08-21T14:33:15;3.55;;;1.10;;
21721;SDS011;11023;48.274;7.794;2022-08-21T14:35:48;2.00;;;1.10;;
21721;SDS011;11023;48.274;7.794;2022-08-21T14:38:14;2.08;;;1.10;;
21721;SDS011;11023;48.274;7.794;2022-08-21T14:40:41;2.00;;;1.00;;
21721;SDS011;11023;48.274;7.794;2022-08-21T14:43:08;2.05;;;1.00;;
21721;SDS011;11023;48.274;7.794;2022-08-21T14:45:34;2.85;;;1.10;;
21721;SDS011;11023;48.274;7.794;2022-08-21T14:48:01;2.75;;;1.20;;
21721;SDS011;11023;48.274;7.794;2022-08-21T14:50:28;3.97;;;1.55;;
21721;SDS011;11023;48.274;7.794;2022-08-21T14:52:54;1.30;;;1.10;;
21721;SDS011;11023;48.274;7.794;2022-08-21T14:55:20;4.78;;;1.50;;
21721;SDS011;11023;48.274;7.794;2022-08-21T14:57:47;2.47;;;1.25;;
21721;SDS011;11023;48.274;7.794;2022-08-21T15:00:17;1.55;;;1.10;;
21721;SDS011;11023;48.274;7.794;2022-08-21T15:02:46;3.50;;;0.95;;
21721;SDS011;11023;48.274;7.794;2022-08-21T15:05:12;2.75;;;1.20;;
21721;SDS011;11023;48.274;7.794;2022-08-21T15:07:38;1.52;;;1.00;;
21721;SDS011;11023;48.274;7.794;2022-08-21T15:10:04;2.63;;;1.25;;
21721;SDS011;11023;48.274;7.794;2022-08-21T15:12:31;2.78;;;1.42;;
21721;SDS011;11023;48.274;7.794;2022-08-21T15:14:57;2.92;;;1.10;;
21721;SDS011;11023;48.274;7.794;2022-08-21T15:17:23;1.45;;;0.90;;
21721;SDS011;11023;48.274;7.794;2022-08-21T15:19:49;2.83;;;1.02;;
21721;SDS011;11023;48.274;7.794;2022-08-21T15:22:15;2.33;;;0.82;;
21721;SDS011;11023;48.274;7.794;2022-08-21T15:24:40;1.70;;;1.20;;
21721;SDS011;11023;48.274;7.794;2022-08-21T15:27:06;1.98;;;0.98;;
21721;SDS011;11023;48.274;7.794;2022-08-21T15:29:34;4.82;;;1.20;;
21721;SDS011;11023;48.274;7.794;2022-08-21T15:32:15;1.83;;;0.90;;
21721;SDS011;11023;48.274;7.794;2022-08-21T15:34:44;2.03;;;1.10;;
21721;SDS011;11023;48.274;7.794;2022-08-21T15:37:09;3.88;;;1.10;;
21721;SDS011;11023;48.274;7.794;2022-08-21T15:39:35;2.55;;;1.23;;
21721;SDS011;11023;48.274;7.794;2022-08-21T15:42:01;3.05;;;1.20;;
21721;SDS011;11023;48.274;7.794;2022-08-21T15:44:28;2.33;;;1.10;;
21721;SDS011;11023;48.274;7.794;2022-08-21T15:46:54;2.80;;;1.50;;
21721;SDS011;11023;48.274;7.794;2022-08-21T15:49:21;2.00;;;1.20;;
21721;SDS011;11023;48.274;7.794;2022-08-21T15:51:47;1.45;;;1.10;;
21721;SDS011;11023;48.274;7.794;2022-08-21T15:54:13;2.35;;;1.25;;
21721;SDS011;11023;48.274;7.794;2022-08-21T15:56:39;10.77;;;7.85;;
21721;SDS011;11023;48.274;7.794;2022-08-21T15:59:12;3.20;;;1.63;;
21721;SDS011;11023;48.274;7.794;2022-08-21T16:01:40;1.93;;;1.30;;
21721;SDS011;11023;48.274;7.794;2022-08-21T16:04:06;2.15;;;1.05;;
21721;SDS011;11023;48.274;7.794;2022-08-21T16:06:33;3.55;;;1.30;;
21721;SDS011;11023;48.274;7.794;2022-08-21T16:08:59;1.65;;;1.08;;
21721;SDS011;11023;48.274;7.794;2022-08-21T16:11:25;2.55;;;1.30;;
21721;SDS011;11023;48.274;7.794;2022-08-21T16:13:51;2.08;;;1.30;;
21721;SDS011;11023;48.274;7.794;2022-08-21T16:16:20;1.45;;;0.93;;
21721;SDS011;11023;48.274;7.794;2022-08-21T16:18:48;1.38;;;1.02;;
21721;SDS011;11023;48.274;7.794;2022-08-21T16:21:15;3.20;;;1.50;;
21721;SDS011;11023;48.274;7.794;2022-08-21T16:23:41;2.97;;;1.50;;
21721;SDS011;11023;48.274;7.794;2022-08-21T16:26:08;1.70;;;1.20;;